LICB Airport Information

Runway Information
Runway 05 Length 8070 ft width 148 ft
Elevation 0 ft Threshold 0 ft Heading 0
Runway 23 Length 8070 ft Width 148 ft
Elevation 0 ft Threshold 0 ft Heading 0
Airport Frequencies
Airport Navaids
Airport Weather Information & NOTAM
ADDS - METARS form results

(2250 UTC 25 April 2019)
Data provider http://aviationweather.gov/metar/data/
 
Forecast for: LICB (COMISO , IT)
Text: TAF LICB 251700Z 2518/2603 08007KT CAVOK
Forecast period: 1800 UTC 25 April 2019 to 0300 UTC 26 April 2019
Forecast type: FROM: standard forecast or significant change
Winds: from the E (80 degrees) at 8 MPH (7 knots; 3.6 m/s)
Visibility: 6 or more miles 10+ km)
Ceiling: unknown
Clouds: missing
Weather: NSW  (no significant weather)